sensor_id;sensor_type;location;lat;lon;timestamp;pressure;altitude;pressure_sealevel;temperature;humidity
15558;BME280;7880;50.110;9.372;2023-03-20T00:04:28;7.421689820289612;;;7.25;100.0
15558;BME280;7880;50.110;9.372;2023-03-20T00:09:33;7.426731943484628;;;7.187;100.0
15558;BME280;7880;50.110;9.372;2023-03-20T00:14:38;7.371268604346551;;;7.187;100.0
15558;BME280;7880;50.110;9.372;2023-03-20T00:19:46;7.416647697385633;;;7.187;100.0
15558;BME280;7880;50.110;9.372;2023-03-20T00:24:47;7.05865771509707;;;6.937;100.0
15558;BME280;7880;50.110;9.372;2023-03-20T00:29:50;7.154457707429538;;;6.875;100.0
15558;BME280;7880;50.110;9.372;2023-03-20T00:34:53;7.083868229208747;;;6.812;100.0
15558;BME280;7880;50.110;9.372;2023-03-20T00:40:02;6.791426712839166;;;6.5;100.0
15558;BME280;7880;50.110;9.372;2023-03-20T00:45:02;6.771258368488634;;;6.5;100.0
15558;BME280;7880;50.110;9.372;2023-03-20T00:50:14;6.821679238096112;;;6.5;100.0
15558;BME280;7880;50.110;9.372;2023-03-20T00:55:12;6.7510900287947155;;;6.5;100.0
15558;BME280;7880;50.110;9.372;2023-03-20T01:00:26;6.872100136807421;;;6.625;100.0
15558;BME280;7880;50.110;9.372;2023-03-20T01:05:21;6.942689443897689;;;6.687;100.0
15558;BME280;7880;50.110;9.372;2023-03-20T01:10:28;6.781342540081823;;;6.562;100.0
15558;BME280;7880;50.110;9.372;2023-03-20T01:15:35;6.867058045626618;;;6.625;100.0
15558;BME280;7880;50.110;9.372;2023-03-20T01:20:33;6.942689443897689;;;6.687;100.0
15558;BME280;7880;50.110;9.372;2023-03-20T01:25:37;7.078826125804335;;;6.812;100.0
15558;BME280;7880;50.110;9.372;2023-03-20T01:30:53;7.214963019877905;;;7.0;100.0
15558;BME280;7880;50.110;9.372;2023-03-20T01:35:47;7.05361561314785;;;6.875;100.0
15558;BME280;7880;50.110;9.372;2023-03-20T01:40:53;7.3763107246311845;;;7.187;100.0
15558;BME280;7880;50.110;9.372;2023-03-20T01:45:58;7.391437087231315;;;7.187;100.0
15558;BME280;7880;50.110;9.372;2023-03-20T01:51:00;7.441858314815908;;;7.312;100.0
15558;BME280;7880;50.110;9.372;2023-03-20T01:56:00;7.567911511106649;;;7.437;100.0
15558;BME280;7880;50.110;9.372;2023-03-20T02:01:07;7.482195317838341;;;7.375;100.0
15558;BME280;7880;50.110;9.372;2023-03-20T02:06:10;7.59312217219267;;;7.5;100.0
15558;BME280;7880;50.110;9.372;2023-03-20T02:11:19;7.59312217219267;;;7.562;100.0
15558;BME280;7880;50.110;9.372;2023-03-20T02:16:20;7.704049167409539;;;7.625;100.0
15558;BME280;7880;50.110;9.372;2023-03-20T02:21:50;7.825060595571995;;;7.75;100.0
15558;BME280;7880;50.110;9.372;2023-03-20T02:26:50;7.799849867547164;;;7.75;100.0
15558;BME280;7880;50.110;9.372;2023-03-20T02:32:33;7.830102742050076;;;7.812;100.0
15558;BME280;7880;50.110;9.372;2023-03-20T02:37:26;7.820018449384952;;;7.75;100.0
15558;BME280;7880;50.110;9.372;2023-03-20T02:42:30;7.799849867547164;;;7.75;100.0
15558;BME280;7880;50.110;9.372;2023-03-20T02:47:36;7.87548207344953;;;7.75;100.0
15558;BME280;7880;50.110;9.372;2023-03-20T02:52:36;7.840187035879353;;;7.75;100.0
15558;BME280;7880;50.110;9.372;2023-03-20T02:57:46;7.76959700352163;;;7.75;100.0
15558;BME280;7880;50.110;9.372;2023-03-20T03:02:44;7.744386291503906;;;7.687;100.0
15558;BME280;7880;50.110;9.372;2023-03-20T03:07:49;7.794807722815312;;;7.75;100.0
15558;BME280;7880;50.110;9.372;2023-03-20T03:12:52;7.8704399243521035;;;7.812;100.0
15558;BME280;7880;50.110;9.372;2023-03-20T03:17:54;7.865397775545716;;;7.812;100.0
15558;BME280;7880;50.110;9.372;2023-03-20T03:22:58;7.895650672749616;;;7.812;100.0
15558;BME280;7880;50.110;9.372;2023-03-20T03:28:03;7.87548207344953;;;7.812;100.0
15558;BME280;7880;50.110;9.372;2023-03-20T03:33:13;7.890608522488037;;;7.812;100.0
15558;BME280;7880;50.110;9.372;2023-03-20T03:37:27;7.87548207344953;;;7.812;100.0
15558;BME280;7880;50.110;9.372;2023-03-20T03:42:29;7.920861428423086;;;7.812;100.0
15558;BME280;7880;50.110;9.372;2023-03-20T03:47:44;7.915819276706316;;;7.812;100.0
15558;BME280;7880;50.110;9.372;2023-03-20T03:52:32;7.941030038200552;;;7.875;100.0
15558;BME280;7880;50.110;9.372;2023-03-20T03:57:38;7.905734974145889;;;7.812;100.0
15558;BME280;7880;50.110;9.372;2023-03-20T04:02:40;7.925903580430895;;;7.812;100.0
15558;BME280;7880;50.110;9.372;2023-03-20T04:07:55;7.910777125280584;;;7.812;100.0
15558;BME280;7880;50.110;9.372;2023-03-20T04:12:50;7.880524222837994;;;7.75;100.0
15558;BME280;7880;50.110;9.372;2023-03-20T04:17:57;7.87548207344953;;;7.75;100.0
15558;BME280;7880;50.110;9.372;2023-03-20T04:23:05;7.845229183230549;;;7.75;100.0
15558;BME280;7880;50.110;9.372;2023-03-20T04:28:04;7.850271330872784;;;7.75;100.0
15558;BME280;7880;50.110;9.372;2023-03-20T04:33:08;7.820018449384952;;;7.75;100.0
15558;BME280;7880;50.110;9.372;2023-03-20T04:38:12;7.809934157883982;;;7.687;100.0
15558;BME280;7880;50.110;9.372;2023-03-20T04:43:21;7.784723434224725;;;7.687;100.0
15558;BME280;7880;50.110;9.372;2023-03-20T04:48:20;7.794807722815312;;;7.687;100.0
15558;BME280;7880;50.110;9.372;2023-03-20T04:53:24;7.804892012570053;;;7.687;100.0
15558;BME280;7880;50.110;9.372;2023-03-20T04:58:29;7.830102742050076;;;7.75;100.0
15558;BME280;7880;50.110;9.372;2023-03-20T05:03:34;7.794807722815312;;;7.687;100.0
15558;BME280;7880;50.110;9.372;2023-03-20T05:08:38;7.799849867547164;;;7.687;100.0
15558;BME280;7880;50.110;9.372;2023-03-20T05:13:45;7.820018449384952;;;7.687;100.0
15558;BME280;7880;50.110;9.372;2023-03-20T05:18:48;7.809934157883982;;;7.687;100.0
15558;BME280;7880;50.110;9.372;2023-03-20T05:23:50;7.784723434224725;;;7.687;100.0
15558;BME280;7880;50.110;9.372;2023-03-20T05:28:55;7.779681290365988;;;7.687;100.0
15558;BME280;7880;50.110;9.372;2023-03-20T05:34:05;7.784723434224725;;;7.687;100.0
15558;BME280;7880;50.110;9.372;2023-03-20T05:39:12;7.809934157883982;;;7.687;100.0
15558;BME280;7880;50.110;9.372;2023-03-20T05:44:09;7.880524222837994;;;7.75;100.0
15558;BME280;7880;50.110;9.372;2023-03-20T05:49:20;7.860355627030367;;;7.75;100.0
15558;BME280;7880;50.110;9.372;2023-03-20T05:54:36;7.885566372517497;;;7.75;100.0
15558;BME280;7880;50.110;9.372;2023-03-20T05:59:24;7.930945732729742;;;7.812;100.0
15558;BME280;7880;50.110;9.372;2023-03-20T06:04:36;7.946072191372513;;;7.812;100.0
15558;BME280;7880;50.110;9.372;2023-03-20T06:09:36;7.971282961597899;;;7.875;100.0
15558;BME280;7880;50.110;9.372;2023-03-20T06:14:38;7.981367271725321;;;7.875;100.0
15558;BME280;7880;50.110;9.372;2023-03-20T06:19:41;8.067083954811096;;;7.937;100.0
15558;BME280;7880;50.110;9.372;2023-03-20T06:24:52;8.112463409319753;;;8.0;100.0
15558;BME280;7880;50.110;9.372;2023-03-20T06:30:05;8.051957475213566;;;7.937;100.0
15558;BME280;7880;50.110;9.372;2023-03-20T06:34:53;8.117505572387017;;;8.0;100.0
15558;BME280;7880;50.110;9.372;2023-03-20T06:39:58;8.157842887402513;;;8.0;100.0
15558;BME280;7880;50.110;9.372;2023-03-20T06:45:01;8.132632063335041;;;8.0;100.0
15558;BME280;7880;50.110;9.372;2023-03-20T06:50:05;8.12254773574532;;;8.0;100.0
15558;BME280;7880;50.110;9.372;2023-03-20T06:55:10;8.082210437027971;;;7.937;100.0
15558;BME280;7880;50.110;9.372;2023-03-20T07:00:13;8.092294759961078;;;8.0;100.0
15558;BME280;7880;50.110;9.372;2023-03-20T07:05:18;8.092294759961078;;;8.0;100.0
15558;BME280;7880;50.110;9.372;2023-03-20T07:10:25;8.077168275997973;;;8.0;100.0
15558;BME280;7880;50.110;9.372;2023-03-20T07:15:32;8.087252598349005;;;8.0;100.0
15558;BME280;7880;50.110;9.372;2023-03-20T07:20:31;7.966240806970745;;;7.875;100.0
15558;BME280;7880;50.110;9.372;2023-03-20T07:25:36;7.971282961597899;;;7.875;100.0
15558;BME280;7880;50.110;9.372;2023-03-20T07:30:41;7.991451583016897;;;7.875;100.0
15558;BME280;7880;50.110;9.372;2023-03-20T07:35:51;7.880524222837994;;;7.812;100.0
15558;BME280;7880;50.110;9.372;2023-03-20T07:40:52;7.956156498589553;;;7.812;100.0
15558;BME280;7880;50.110;9.372;2023-03-20T07:45:56;7.951114344835514;;;7.812;100.0
15558;BME280;7880;50.110;9.372;2023-03-20T07:51:00;8.051957475213566;;;7.875;100.0
15558;BME280;7880;50.110;9.372;2023-03-20T07:56:04;8.188095885887742;;;8.0;100.0
15558;BME280;7880;50.110;9.372;2023-03-20T08:01:10;8.258686256431975;;;8.062;100.0
15558;BME280;7880;50.110;9.372;2023-03-20T08:06:18;8.319192333729006;;;8.125;100.0
15558;BME280;7880;50.110;9.372;2023-03-20T08:11:22;8.31415015902021;;;8.187;100.0
15558;BME280;7880;50.110;9.372;2023-03-20T08:16:26;8.40490934830741;;;8.25;100.0
15558;BME280;7880;50.110;9.372;2023-03-20T08:21:31;8.147758556902408;;;8.062;100.0
15558;BME280;7880;50.110;9.372;2023-03-20T08:26:35;8.193138053320581;;;8.062;100.0
15558;BME280;7880;50.110;9.372;2023-03-20T08:31:38;8.253644085215637;;;8.125;100.0
15558;BME280;7880;50.110;9.372;2023-03-20T08:36:43;8.344403211638564;;;8.187;100.0
15558;BME280;7880;50.110;9.372;2023-03-20T08:41:32;8.40490934830741;;;8.25;100.0
15558;BME280;7880;50.110;9.372;2023-03-20T08:46:36;8.38474063142785;;;8.25;100.0
15558;BME280;7880;50.110;9.372;2023-03-20T08:51:40;8.430120250955223;;;8.312;100.0
15558;BME280;7880;50.110;9.372;2023-03-20T08:56:45;8.36961409682408;;;8.25;100.0
15558;BME280;7880;50.110;9.372;2023-03-20T09:01:52;8.334318859601627;;;8.25;100.0
15558;BME280;7880;50.110;9.372;2023-03-20T09:06:56;8.409951528254897;;;8.25;100.0
15558;BME280;7880;50.110;9.372;2023-03-20T09:11:58;8.52592174737365;;;8.375;100.0
15558;BME280;7880;50.110;9.372;2023-03-20T09:17:01;8.52592174737365;;;8.375;100.0
15558;BME280;7880;50.110;9.372;2023-03-20T09:22:10;8.500710817077197;;;8.437;100.0
15558;BME280;7880;50.110;9.372;2023-03-20T09:27:13;8.40490934830741;;;8.312;100.0
15558;BME280;7880;50.110;9.372;2023-03-20T09:32:25;8.38474063142785;;;8.25;100.0
15558;BME280;7880;50.110;9.372;2023-03-20T09:37:22;8.435162432357902;;;8.312;100.0
15558;BME280;7880;50.110;9.372;2023-03-20T09:42:37;8.445246796036372;;;8.25;100.0
15558;BME280;7880;50.110;9.372;2023-03-20T09:47:42;8.556174873333656;;;8.312;100.0
15558;BME280;7880;50.110;9.372;2023-03-20T09:52:39;8.460373343736865;;;8.312;100.0
15558;BME280;7880;50.110;9.372;2023-03-20T09:57:42;8.510795188322664;;;8.375;100.0
15558;BME280;7880;50.110;9.372;2023-03-20T10:02:52;8.566259250981966;;;8.375;100.0
15558;BME280;7880;50.110;9.372;2023-03-20T10:07:54;8.576343629794428;;;8.437;100.0
15558;BME280;7880;50.110;9.372;2023-03-20T10:13:01;8.38474063142785;;;8.25;100.0
15558;BME280;7880;50.110;9.372;2023-03-20T10:18:04;8.344403211638564;;;8.187;100.0
15558;BME280;7880;50.110;9.372;2023-03-20T10:23:05;8.31415015902021;;;8.187;100.0
15558;BME280;7880;50.110;9.372;2023-03-20T10:28:11;8.329276684019714;;;8.187;100.0
15558;BME280;7880;50.110;9.372;2023-03-20T10:33:19;8.339361035474576;;;8.187;100.0
15558;BME280;7880;50.110;9.372;2023-03-20T10:38:22;8.354487564839655;;;8.187;100.0
15558;BME280;7880;50.110;9.372;2023-03-20T10:43:25;8.409951528254897;;;8.25;100.0
15558;BME280;7880;50.110;9.372;2023-03-20T10:48:36;8.530963934306055;;;8.312;100.0
15558;BME280;7880;50.110;9.372;2023-03-20T10:53:34;8.67214528657496;;;8.5;100.0
15558;BME280;7880;50.110;9.372;2023-03-20T10:58:39;8.571301440242678;;;8.437;100.0
15558;BME280;7880;50.110;9.372;2023-03-20T11:03:43;8.515837374381954;;;8.375;100.0
15558;BME280;7880;50.110;9.372;2023-03-20T11:08:49;8.581385819637216;;;8.437;100.0
15558;BME280;7880;50.110;9.372;2023-03-20T11:13:50;8.747778247721726;;;8.562;100.0
15558;BME280;7880;50.110;9.372;2023-03-20T11:18:54;8.798200258199358;;;8.625;100.0
15558;BME280;7880;50.110;9.372;2023-03-20T11:23:57;8.863748915330508;;;8.75;100.0
15558;BME280;7880;50.110;9.372;2023-03-20T11:29:05;8.757862647488945;;;8.687;100.0
15558;BME280;7880;50.110;9.372;2023-03-20T11:34:22;8.722567253396846;;;8.562;100.0
15558;BME280;7880;50.110;9.372;2023-03-20T11:39:23;8.697356266347924;;;8.562;100.0
15558;BME280;7880;50.110;9.372;2023-03-20T11:44:22;8.667103091493482;;;8.562;100.0
15558;BME280;7880;50.110;9.372;2023-03-20T11:49:25;8.662060896703043;;;8.562;100.0
15558;BME280;7880;50.110;9.372;2023-03-20T11:54:28;8.697356266347924;;;8.562;100.0
15558;BME280;7880;50.110;9.372;2023-03-20T11:59:34;8.88895995040075;;;8.75;100.0
15558;BME280;7880;50.110;9.372;2023-03-20T12:04:37;9.110817372758174;;;9.0;100.0
15558;BME280;7880;50.110;9.372;2023-03-20T12:09:44;9.115859593451024;;;9.062;100.0
15558;BME280;7880;50.110;9.372;2023-03-20T12:14:55;10.33104326739558;;;9.937;100.0
15558;BME280;7880;50.110;9.372;2023-03-20T12:19:51;9.438562323153018;;;9.5;100.0
15558;BME280;7880;50.110;9.372;2023-03-20T12:24:57;9.660421141330152;;;9.562;100.0
15558;BME280;7880;50.110;9.372;2023-03-20T12:30:12;9.705801423551748;;;9.625;100.0
15558;BME280;7880;50.110;9.372;2023-03-20T12:35:08;9.635209883615607;;;9.5;100.0
15558;BME280;7880;50.110;9.372;2023-03-20T12:40:05;9.559576154127717;;;9.5;100.0
15558;BME280;7880;50.110;9.372;2023-03-20T12:45:10;9.655378889205167;;;9.562;100.0
15558;BME280;7880;50.110;9.372;2023-03-20T12:50:19;9.76126624494791;;;9.687;100.0
15558;BME280;7880;50.110;9.372;2023-03-20T12:55:28;10.00833724081167;;;9.875;100.0
15558;BME280;7880;50.110;9.372;2023-03-20T13:00:29;10.033548606210388;;;9.937;100.0
15558;BME280;7880;50.110;9.372;2023-03-20T13:05:40;10.033548606210388;;;9.937;100.0
15558;BME280;7880;50.110;9.372;2023-03-20T13:10:34;10.436931442120112;;;10.312;100.0
15558;BME280;7880;50.110;9.372;2023-03-20T13:15:47;10.457100632810034;;;10.437;100.0
15558;BME280;7880;50.110;9.372;2023-03-20T13:20:45;10.477269828156569;;;10.5;100.0
15558;BME280;7880;50.110;9.372;2023-03-20T13:26:00;10.34617014164105;;;10.312;100.0
15558;BME280;7880;50.110;9.372;2023-03-20T13:31:14;10.38146619173349;;;10.312;100.0
15558;BME280;7880;50.110;9.372;2023-03-20T13:36:06;10.431889145175228;;;10.375;100.0
15558;BME280;7880;50.110;9.372;2023-03-20T13:41:09;10.512565931217978;;;10.437;100.0
15558;BME280;7880;50.110;9.372;2023-03-20T13:45:57;10.542819745192537;;;10.5;100.0
15558;BME280;7880;50.110;9.372;2023-03-20T13:51:00;10.527692836895586;;;10.5;100.0
15558;BME280;7880;50.110;9.372;2023-03-20T13:56:06;10.502481328888098;;;10.5;100.0
15558;BME280;7880;50.110;9.372;2023-03-20T14:01:06;10.562988960329676;;;10.5;100.0
15558;BME280;7880;50.110;9.372;2023-03-20T14:06:17;10.583158180123428;;;10.5;100.0
15558;BME280;7880;50.110;9.372;2023-03-20T14:11:27;10.709215909335763;;;10.625;100.0
15558;BME280;7880;50.110;9.372;2023-03-20T14:16:18;10.68400434894138;;;10.625;100.0
15558;BME280;7880;50.110;9.372;2023-03-20T14:21:36;10.67896203773562;;;10.687;100.0
15558;BME280;7880;50.110;9.372;2023-03-20T14:26:29;10.68904666043818;;;10.687;100.0
15558;BME280;7880;50.110;9.372;2023-03-20T14:31:38;10.673919726820895;;;10.687;100.0
15558;BME280;7880;50.110;9.372;2023-03-20T14:36:45;10.653750486072386;;;10.625;100.0
15558;BME280;7880;50.110;9.372;2023-03-20T14:41:56;10.63358124998049;;;10.625;100.0
15558;BME280;7880;50.110;9.372;2023-03-20T14:46:50;10.729385162889958;;;10.687;100.0
15558;BME280;7880;50.110;9.372;2023-03-20T14:52:19;10.754596736381064;;;10.75;100.0
15558;BME280;7880;50.110;9.372;2023-03-20T14:57:09;10.694088972226018;;;10.687;100.0
15558;BME280;7880;50.110;9.372;2023-03-20T15:02:24;10.638623558566906;;;10.625;100.0
15558;BME280;7880;50.110;9.372;2023-03-20T15:07:15;10.653750486072386;;;10.687;100.0
15558;BME280;7880;50.110;9.372;2023-03-20T15:12:24;10.653750486072386;;;10.687;100.0
15558;BME280;7880;50.110;9.372;2023-03-20T15:17:26;10.532735139370198;;;10.5;100.0
15558;BME280;7880;50.110;9.372;2023-03-20T15:22:29;10.487354427576065;;;10.437;100.0
15558;BME280;7880;50.110;9.372;2023-03-20T15:27:34;10.46214293121011;;;10.437;100.0
15558;BME280;7880;50.110;9.372;2023-03-20T15:32:39;10.457100632810034;;;10.437;100.0
15558;BME280;7880;50.110;9.372;2023-03-20T15:37:43;10.49239672772237;;;10.5;100.0
15558;BME280;7880;50.110;9.372;2023-03-20T15:42:51;10.426846848521382;;;10.437;100.0
15558;BME280;7880;50.110;9.372;2023-03-20T15:47:50;10.38650848576799;;;10.375;100.0
15558;BME280;7880;50.110;9.372;2023-03-20T15:52:54;10.376423897990026;;;10.375;100.0
15558;BME280;7880;50.110;9.372;2023-03-20T15:58:02;10.336085558519699;;;10.312;100.0
15558;BME280;7880;50.110;9.372;2023-03-20T16:03:09;10.29070494888001;;;10.25;100.0
15558;BME280;7880;50.110;9.372;2023-03-20T16:08:12;10.225155221018941;;;10.25;100.0
15558;BME280;7880;50.110;9.372;2023-03-20T16:13:12;10.280620372161502;;;10.25;100.0
15558;BME280;7880;50.110;9.372;2023-03-20T16:18:22;10.265493509266525;;;10.187;100.0
15558;BME280;7880;50.110;9.372;2023-03-20T16:23:32;10.265493509266525;;;10.25;100.0
15558;BME280;7880;50.110;9.372;2023-03-20T16:28:28;10.204986083880067;;;10.187;100.0
15558;BME280;7880;50.110;9.372;2023-03-20T16:35:19;10.094055912853218;;;10.062;100.0
15558;BME280;7880;50.110;9.372;2023-03-20T16:40:27;9.998252696689452;;;10.0;100.0
15558;BME280;7880;50.110;9.372;2023-03-20T16:45:28;9.957914531842107;;;9.937;100.0
15558;BME280;7880;50.110;9.372;2023-03-20T16:50:33;9.82681562472717;;;9.812;100.0
15558;BME280;7880;50.110;9.372;2023-03-20T16:55:36;9.74613947198377;;;9.75;100.0
15558;BME280;7880;50.110;9.372;2023-03-20T17:00:43;9.574702894786606;;;9.562;100.0
15558;BME280;7880;50.110;9.372;2023-03-20T17:05:48;9.509153704182244;;;9.437;100.0
15558;BME280;7880;50.110;9.372;2023-03-20T17:10:49;9.38813994305674;;;9.375;100.0
15558;BME280;7880;50.110;9.372;2023-03-20T17:15:53;9.342759825853864;;;9.312;100.0
15558;BME280;7880;50.110;9.372;2023-03-20T17:20:58;9.221746295230696;;;9.125;100.0
15558;BME280;7880;50.110;9.372;2023-03-20T17:26:10;9.166281816386618;;;9.125;100.0
15558;BME280;7880;50.110;9.372;2023-03-20T17:31:12;9.090648492897163;;;9.062;100.0
15558;BME280;7880;50.110;9.372;2023-03-20T17:36:16;9.060395181836792;;;9.0;100.0
15558;BME280;7880;50.110;9.372;2023-03-20T17:41:25;8.949466464255238;;;8.875;100.0
15558;BME280;7880;50.110;9.372;2023-03-20T17:46:25;8.909128783695632;;;8.812;100.0
15558;BME280;7880;50.110;9.372;2023-03-20T17:51:28;8.909128783695632;;;8.812;100.0
15558;BME280;7880;50.110;9.372;2023-03-20T17:56:33;8.88895995040075;;;8.812;100.0
15558;BME280;7880;50.110;9.372;2023-03-20T18:01:36;8.778031450515845;;;8.687;100.0
15558;BME280;7880;50.110;9.372;2023-03-20T18:06:40;8.808284663787344;;;8.625;100.0
15558;BME280;7880;50.110;9.372;2023-03-20T18:11:49;8.778031450515845;;;8.625;100.0
15558;BME280;7880;50.110;9.372;2023-03-20T18:16:49;8.798200258199358;;;8.687;100.0
15558;BME280;7880;50.110;9.372;2023-03-20T18:22:06;8.641892120451667;;;8.562;100.0
15558;BME280;7880;50.110;9.372;2023-03-20T18:27:01;8.5360061215295;;;8.437;100.0
15558;BME280;7880;50.110;9.372;2023-03-20T18:32:06;8.596512390911812;;;8.5;100.0
15558;BME280;7880;50.110;9.372;2023-03-20T18:37:12;8.636849927116419;;;8.562;100.0
15558;BME280;7880;50.110;9.372;2023-03-20T18:42:17;8.561217062012293;;;8.5;100.0
15558;BME280;7880;50.110;9.372;2023-03-20T18:47:24;8.5360061215295;;;8.5;100.0
15558;BME280;7880;50.110;9.372;2023-03-20T18:52:03;8.485584262391786;;;8.437;100.0
15558;BME280;7880;50.110;9.372;2023-03-20T18:57:10;8.455331160878995;;;8.375;100.0
15558;BME280;7880;50.110;9.372;2023-03-20T19:02:11;8.475499894056702;;;8.375;100.0
15558;BME280;7880;50.110;9.372;2023-03-20T19:07:15;8.394824989285553;;;8.312;100.0
15558;BME280;7880;50.110;9.372;2023-03-20T19:12:19;8.409951528254897;;;8.312;100.0
15558;BME280;7880;50.110;9.372;2023-03-20T19:17:25;8.379698452935553;;;8.312;100.0
15558;BME280;7880;50.110;9.372;2023-03-20T19:22:30;8.31415015902021;;;8.25;100.0
15558;BME280;7880;50.110;9.372;2023-03-20T19:27:35;8.430120250955223;;;8.312;100.0
15558;BME280;7880;50.110;9.372;2023-03-20T19:32:42;8.40490934830741;;;8.375;100.0
15558;BME280;7880;50.110;9.372;2023-03-20T19:37:43;8.334318859601627;;;8.25;100.0
15558;BME280;7880;50.110;9.372;2023-03-20T19:42:48;8.319192333729006;;;8.187;100.0
15558;BME280;7880;50.110;9.372;2023-03-20T19:47:51;8.31415015902021;;;8.25;100.0
15558;BME280;7880;50.110;9.372;2023-03-20T19:52:57;8.354487564839655;;;8.25;100.0
15558;BME280;7880;50.110;9.372;2023-03-20T19:58:00;8.26372842793935;;;8.187;100.0
15558;BME280;7880;50.110;9.372;2023-03-20T20:03:09;8.15280072200694;;;8.062;100.0
15558;BME280;7880;50.110;9.372;2023-03-20T20:08:13;8.132632063335041;;;8.0;100.0
15558;BME280;7880;50.110;9.372;2023-03-20T20:13:16;7.976325116516091;;;7.937;100.0
15558;BME280;7880;50.110;9.372;2023-03-20T20:18:22;8.011620209092507;;;7.875;100.0
15558;BME280;7880;50.110;9.372;2023-03-20T20:23:25;7.981367271725321;;;7.875;100.0
15558;BME280;7880;50.110;9.372;2023-03-20T20:28:28;7.880524222837994;;;7.812;100.0
15558;BME280;7880;50.110;9.372;2023-03-20T20:33:35;7.799849867547164;;;7.75;100.0
15558;BME280;7880;50.110;9.372;2023-03-20T20:38:42;7.825060595571995;;;7.75;100.0
15558;BME280;7880;50.110;9.372;2023-03-20T20:43:43;7.784723434224725;;;7.75;100.0
15558;BME280;7880;50.110;9.372;2023-03-20T20:48:54;7.7746391467982905;;;7.687;100.0
15558;BME280;7880;50.110;9.372;2023-03-20T20:53:51;7.683880612347275;;;7.625;100.0
15558;BME280;7880;50.110;9.372;2023-03-20T20:58:55;7.69396488929633;;;7.625;100.0
15558;BME280;7880;50.110;9.372;2023-03-20T21:03:58;7.648585652193288;;;7.562;100.0
15558;BME280;7880;50.110;9.372;2023-03-20T21:09:03;7.653627788485028;;;7.562;100.0
15558;BME280;7880;50.110;9.372;2023-03-20T21:14:13;7.58808003939339;;;7.562;100.0
15558;BME280;7880;50.110;9.372;2023-03-20T21:19:15;7.59312217219267;;;7.5;100.0
15558;BME280;7880;50.110;9.372;2023-03-20T21:24:16;7.532616597809829;;;7.5;100.0
15558;BME280;7880;50.110;9.372;2023-03-20T21:29:20;7.497321698773885;;;7.437;100.0
15558;BME280;7880;50.110;9.372;2023-03-20T21:34:25;7.512448082328774;;;7.437;100.0
15558;BME280;7880;50.110;9.372;2023-03-20T21:39:29;7.456984688766534;;;7.375;100.0
15558;BME280;7880;50.110;9.372;2023-03-20T21:44:39;7.56286937976256;;;7.437;100.0
15558;BME280;7880;50.110;9.372;2023-03-20T21:49:39;7.648585652193288;;;7.562;100.0
15558;BME280;7880;50.110;9.372;2023-03-20T21:54:45;7.5830379068851474;;;7.5;100.0
15558;BME280;7880;50.110;9.372;2023-03-20T21:59:53;7.567911511106649;;;7.5;100.0
15558;BME280;7880;50.110;9.372;2023-03-20T22:04:53;7.648585652193288;;;7.5;100.0
15558;BME280;7880;50.110;9.372;2023-03-20T22:09:57;7.477153191441903;;;7.437;100.0
15558;BME280;7880;50.110;9.372;2023-03-20T22:15:00;7.577995774667943;;;7.5;100.0
15558;BME280;7880;50.110;9.372;2023-03-20T22:20:03;7.577995774667943;;;7.5;100.0
15558;BME280;7880;50.110;9.372;2023-03-20T22:25:08;7.537658727407688;;;7.437;100.0
15558;BME280;7880;50.110;9.372;2023-03-20T22:30:12;7.542700857296586;;;7.437;100.0
15558;BME280;7880;50.110;9.372;2023-03-20T22:35:16;7.59312217219267;;;7.5;100.0
15558;BME280;7880;50.110;9.372;2023-03-20T22:40:25;7.59312217219267;;;7.562;100.0
15558;BME280;7880;50.110;9.372;2023-03-20T22:45:24;7.638501380482921;;;7.562;100.0
15558;BME280;7880;50.110;9.372;2023-03-20T22:50:30;7.577995774667943;;;7.437;100.0
15558;BME280;7880;50.110;9.372;2023-03-20T22:55:32;7.603206438664347;;;7.5;100.0
15558;BME280;7880;50.110;9.372;2023-03-20T23:00:37;7.608248572336743;;;7.562;100.0
15558;BME280;7880;50.110;9.372;2023-03-20T23:05:44;7.56286937976256;;;7.437;100.0
15558;BME280;7880;50.110;9.372;2023-03-20T23:10:48;7.462026813998818;;;7.375;100.0
15558;BME280;7880;50.110;9.372;2023-03-20T23:15:50;7.3763107246311845;;;7.25;100.0
15558;BME280;7880;50.110;9.372;2023-03-20T23:20:55;7.346058007288957;;;7.187;100.0
15558;BME280;7880;50.110;9.372;2023-03-20T23:26:03;7.3359737705031876;;;7.25;100.0
15558;BME280;7880;50.110;9.372;2023-03-20T23:31:29;7.275468374235788;;;7.125;100.0
15558;BME280;7880;50.110;9.372;2023-03-20T23:36:10;7.346058007288957;;;7.187;100.0
15558;BME280;7880;50.110;9.372;2023-03-20T23:41:15;7.406563452450792;;;7.312;100.0
15558;BME280;7880;50.110;9.372;2023-03-20T23:46:18;7.1695840316126125;;;7.062;100.0
15558;BME280;7880;50.110;9.372;2023-03-20T23:51:22;7.270426259771921;;;7.062;100.0
15558;BME280;7880;50.110;9.372;2023-03-20T23:56:16;7.159499815199524;;;6.937;100.0
